NY Terminal Aviation Weather Discussion (AFD) - Prepared: 649 AM EST FRI FEB 27 2015
HIGH PRESSURE BUILDS IN FROM THE WEST THROUGH THE TAF PERIOD.

VFR FORECAST. 

N WINDS LESS THAN 10 KT THIS MORNING BECOME NW 7-11 KT THIS 
AFTERNOON AND EVENING. WINDS SHOULD REMAIN NW OVERNIGHT WITH SPEEDS 
UNDER 10 KT.  

5 Day General Aviation Outlook:

.OUTLOOK FOR 12Z SAT THROUGH TUE...
.SAT-SUN AFTERNOON...VFR.
.SUN NIGHT-MON MORNING...MVFR OR IFR CONDS IN SNOW.
.MON AFTERNOON-TUE AFTERNOON...VFR. 
.TUE NIGHT...MVFR OR IFR CONDS POSSIBLE IN MIXED PRECIPITATION.


*************************************************************************************
KJFK Terminal Weather:

FTNA35 KJFK 271427 RRA
KJFK 271423Z 2714/2818 35008KT P6SM FEW090 SCT250
     FM271700 33010KT P6SM SCT030 BKN050
     FM272200 33011KT P6SM SCT035
     FM280600 34008KT P6SM SCT250
     FM281300 32009KT P6SM SCT250
KJFK FCSTER COMMENTS: WIND DIRECTION VARYING FROM 350-020 TRUE 
(360-030 MAGNETIC) THIS MORNING. LOW CHANCE MVFR CIGS THIS 
AFTERNOON.

*************************************************************************************
KLGA Terminal Weather:
FTUS80 KLGA 271424 AAB
KLGA 271423Z 2714/2812 34009KT P6SM FEW160
     FM271700 33010KT P6SM SCT030 BKN050
     FM272200 33011KT P6SM SCT035
     FM280600 34008KT P6SM SCT250
KLGA FCSTER COMMENTS: WIND DIRECTION VARYING FROM 340-020 TRUE 
(010-030 MAGNETIC) THIS MORNING. LOW CHANCE MVFR CIGS THIS 
AFTERNOON.

*************************************************************************************
KEWR Terminal Weather:
FTUS80 KEWR 271424 AAA
KEWR 271423Z 2714/2818 35009KT P6SM FEW050 SCT150
     FM271700 34010KT P6SM SCT030 BKN050
     FM272200 32011KT P6SM SCT035
     FM280600 32007KT P6SM SCT250
     FM281300 34009KT P6SM SCT250
KEWR FCSTER COMMENTS: WIND DIRECTION VARYING FROM 350-020 TRUE 
(360-030 MAGNETIC) THIS MORNING. LOW CHANCE MVFR CIGS THIS 
AFTERNOON.

*************************************************************************************
KTEB Terminal Weather:
FTUS80 KTEB 271424 AAB
KTEB 271423Z 2714/2812 34007KT P6SM SCT150
     FM271700 33008KT P6SM SCT030 BKN050
     FM272200 33006KT P6SM SCT035
     FM280500 VRB05KT P6SM SKC
KTEB FCSTER COMMENTS: LOW CHANCE MVFR CIGS THIS AFTERNOON.

*************************************************************************************
KHPN Terminal Weather:
FTUS41 KHPN 271424 AAA
KHPN 271423Z 2714/2812 33009KT P6SM SCT150
     FM271700 32009KT P6SM SCT030 BKN050
     FM272200 32006KT P6SM SCT035
     FM280700 VRB05KT P6SM SKC AMD NOT SKED
KHPN FCSTER COMMENTS: LOW CHANCE MVFR CIGS THIS AFTERNOON.

*************************************************************************************
KISP Terminal Weather:
FTUS51 KISP 271424 AAA
KISP 271423Z 2714/2812 35009KT P6SM SCT150 SCT250
     FM271800 33008KT P6SM SCT030 BKN050
     FM272300 33006KT P6SM SCT035
     FM280600 34006KT P6SM SCT250
KISP FCSTER COMMENTS: LOW CHANCE MVFR CIGS THIS AFTERNOON.

*************************************************************************************
5 Day General Outlook:

.OUTLOOK FOR 12Z SAT THROUGH TUE...
.SAT-SUN AFTERNOON...VFR.
.SUN NIGHT-MON MORNING...MVFR OR IFR CONDS IN SNOW.
.MON AFTERNOON-TUE AFTERNOON...VFR. 
.TUE NIGHT...MVFR OR IFR CONDS POSSIBLE IN MIXED PRECIPITATION.


Click the Print Icon print icon below to print the briefing sheet